Amsterdam, New York
Current Conditions -  °F | °C
As of 9:35 PM on Tuesday 21 Oct 2014 (Local Time) from KNY0 Reporting Station
Overcast Overcast  
Wind Chill:   Ceiling: 900
Heat Index:   Visibility: 10mi
Dew Point:   Wind: 7mph
Humidity: 89%   Direction: 60°ENE
Pressure: 30"   Gusts: NA
Location:  42.94°N, 74.19°W
Report Text: KNY0 220135Z AUTO 06006KT 10SM OVC009 09/07 A3000 RMK AO2 T00870070
Loading
Personal Weather Stations






























Interactive Weather Map
Tropical Storm Tracking
New forecast layout! Learn more

10-Day Weather Forecast

Advertisements
Track Severe Weather on mobile